Time;durP1;ratioP1;P1;durP2;ratioP2;P2;SDS_P1;SDS_P2;PMS_P1;PMS_P2;Temp;Humidity;BMP_temperature;BMP_pressure;BME280_temperature;BME280_humidity;BME280_pressure;Samples;Min_cycle;Max_cycle;Signal;HPM_P1;HPM_P2
2023/03/21 00:00:55;;;;;;;8.67;2.50;;;8.90;99.90;;;9.45;100.00;98339.38;4998259;28;20501;-77
2023/03/21 00:03:26;;;;;;;6.13;1.93;;;8.90;99.90;;;9.44;100.00;98330.75;4997259;28;20886;-77
2023/03/21 00:05:56;;;;;;;8.93;2.37;;;8.90;99.90;;;9.44;100.00;98335.97;4997606;28;20525;-77
2023/03/21 00:08:28;;;;;;;2.17;1.77;;;8.80;99.90;;;9.44;100.00;98325.53;4997474;28;20463;-77
2023/03/21 00:10:59;;;;;;;9.93;2.20;;;8.90;99.90;;;9.43;100.00;98323.91;4997812;28;20841;-77
2023/03/21 00:13:31;;;;;;;4.80;1.50;;;8.80;99.90;;;9.45;100.00;98321.13;4996701;28;20955;-77
2023/03/21 00:16:05;;;;;;;6.37;1.90;;;8.80;99.90;;;9.43;100.00;98316.09;4996910;28;20467;-77
2023/03/21 00:18:45;;;;;;;4.10;2.40;;;8.70;99.90;;;9.43;100.00;98313.47;4993988;28;20655;-77
2023/03/21 00:21:18;;;;;;;6.60;2.13;;;8.80;99.90;;;9.45;100.00;98321.13;4994724;28;20977;-77
2023/03/21 00:24:08;;;;;;;3.60;2.00;;;8.80;99.90;;;9.43;100.00;98321.31;4995381;28;20495;-77
2023/03/21 00:26:38;;;;;;;3.90;1.60;;;8.80;99.90;;;9.42;100.00;98314.47;4995923;28;20503;-77
2023/03/21 00:29:08;;;;;;;7.23;2.23;;;8.90;99.90;;;9.41;100.00;98312.00;4998295;28;20545;-77
2023/03/21 00:31:36;;;;;;;5.30;1.73;;;8.90;99.90;;;9.37;100.00;98314.16;4995919;28;20529;-77
2023/03/21 00:34:09;;;;;;;2.77;1.53;;;8.90;99.90;;;9.36;100.00;98309.94;4997475;28;20497;-77
2023/03/21 00:36:38;;;;;;;3.80;1.70;;;8.90;99.90;;;9.34;100.00;98306.66;4996913;28;21170;-77
2023/03/21 00:39:07;;;;;;;6.00;1.60;;;8.80;99.90;;;9.33;100.00;98306.84;4995615;28;20962;-78
2023/03/21 00:41:38;;;;;;;5.30;1.80;;;8.80;99.90;;;9.33;100.00;98299.03;4996359;28;20468;-77
2023/03/21 00:44:14;;;;;;;2.90;1.70;;;8.80;99.90;;;9.34;100.00;98298.84;4996372;28;20545;-78
2023/03/21 00:46:44;;;;;;;2.93;1.77;;;8.80;99.90;;;9.34;100.00;98288.41;4993629;28;20993;-77
2023/03/21 00:49:37;;;;;;;1.87;1.40;;;8.80;99.90;;;9.33;100.00;98292.00;4995295;28;20454;-77
2023/03/21 00:52:10;;;;;;;5.73;2.13;;;8.80;99.90;;;9.29;100.00;98288.13;4997658;28;20475;-76
2023/03/21 00:54:53;;;;;;;7.07;2.20;;;8.80;99.90;;;9.30;100.00;98281.91;4995839;28;20476;-77
2023/03/21 00:57:23;;;;;;;6.30;1.80;;;8.70;99.90;;;9.29;100.00;98290.72;4999090;28;20841;-77
2023/03/21 01:00:09;;;;;;;5.90;1.70;;;8.80;99.90;;;9.28;100.00;98294.31;4997180;28;20505;-77
2023/03/21 01:02:41;;;;;;;16.03;1.93;;;8.70;99.90;;;9.25;100.00;98294.66;4995984;28;20478;-77
2023/03/21 01:06:00;;;;;;;4.53;2.07;;;8.70;99.90;;;9.23;100.00;98288.81;4995884;28;20990;-77
2023/03/21 01:08:06;;;;;;;4.27;2.03;;;8.70;99.90;;;9.24;100.00;98287.81;4997310;28;20463;-77
2023/03/21 01:10:53;;;;;;;5.73;1.80;;;8.70;99.90;;;9.23;100.00;98281.00;4997645;28;20464;-77
2023/03/21 01:13:25;;;;;;;7.00;2.20;;;8.70;99.90;;;9.19;100.00;98284.94;4997208;28;20492;-77
2023/03/21 01:15:56;;;;;;;6.20;2.10;;;8.70;99.90;;;9.20;100.00;98286.53;4995904;28;21662;-77
2023/03/21 01:18:28;;;;;;;5.90;2.37;;;8.70;99.90;;;9.20;100.00;98281.31;4994613;28;21199;-77
2023/03/21 01:21:00;;;;;;;3.77;2.43;;;8.70;99.90;;;9.20;100.00;98283.91;4998018;28;20525;-77
2023/03/21 01:23:31;;;;;;;4.20;1.90;;;8.70;99.90;;;9.21;100.00;98282.13;4996836;28;20479;-77
2023/03/21 01:26:01;;;;;;;3.33;2.13;;;8.70;99.90;;;9.20;100.00;98278.69;4995708;28;20495;-77
2023/03/21 01:28:30;;;;;;;10.90;2.60;;;8.70;99.90;;;9.19;100.00;98279.72;4997564;28;20538;-77
2023/03/21 01:31:03;;;;;;;4.50;2.07;;;8.70;99.90;;;9.18;100.00;98283.28;5001592;28;20546;-77
2023/03/21 01:33:34;;;;;;;6.87;2.03;;;8.60;99.90;;;9.20;100.00;98270.88;5000591;28;20470;-77
2023/03/21 01:36:07;;;;;;;12.90;2.20;;;8.60;99.90;;;9.22;100.00;98273.31;4999038;28;20468;-77
2023/03/21 01:38:42;;;;;;;8.87;2.30;;;8.50;99.90;;;9.23;100.00;98269.75;4998714;28;20470;-77
2023/03/21 01:41:24;;;;;;;4.23;1.67;;;8.60;99.90;;;9.23;100.00;98269.75;5000404;28;20554;-77
2023/03/21 01:44:15;;;;;;;4.37;2.20;;;8.60;99.90;;;9.22;100.00;98268.91;5001323;28;20545;-77
2023/03/21 01:46:48;;;;;;;3.53;1.90;;;8.70;99.90;;;9.23;100.00;98260.13;4999736;28;20451;-77
2023/03/21 01:49:44;;;;;;;11.40;2.23;;;8.70;99.90;;;9.23;100.00;98260.13;5000076;28;20809;-77
2023/03/21 01:52:22;;;;;;;5.03;2.03;;;8.60;99.90;;;9.23;100.00;98254.91;4998810;28;20467;-77
2023/03/21 01:55:10;;;;;;;4.83;2.43;;;8.70;99.90;;;9.25;100.00;98258.13;4999064;28;20478;-77
2023/03/21 01:57:47;;;;;;;6.37;2.20;;;8.70;99.90;;;9.25;100.00;98257.31;4998344;28;20498;-77
2023/03/21 02:00:35;;;;;;;4.80;1.60;;;8.60;99.90;;;9.25;100.00;98252.91;4999552;28;20880;-77
2023/03/21 02:03:10;;;;;;;2.67;1.70;;;8.70;99.90;;;9.25;100.00;98246.88;4999023;28;20467;-77
2023/03/21 02:05:55;;;;;;;4.47;2.00;;;8.70;99.90;;;9.25;100.00;98237.25;4997886;28;20486;-77
2023/03/21 02:08:28;;;;;;;4.87;2.00;;;8.70;99.90;;;9.23;100.00;98231.41;4998695;28;20467;-78
2023/03/21 02:11:09;;;;;;;6.40;1.83;;;8.70;99.90;;;9.22;100.00;98221.16;5001830;28;20466;-77
2023/03/21 02:13:39;;;;;;;9.53;2.17;;;8.70;99.90;;;9.22;100.00;98214.13;5001389;28;20509;-77
2023/03/21 02:16:21;;;;;;;8.40;2.43;;;8.70;99.90;;;9.21;100.00;98212.50;4999458;28;20478;-78
2023/03/21 02:19:00;;;;;;;4.50;1.63;;;8.70;99.90;;;9.19;100.00;98206.66;4997657;28;20463;-77
2023/03/21 02:22:10;;;;;;;3.77;1.70;;;8.70;99.90;;;9.17;100.00;98208.59;4998490;28;20969;-77
2023/03/21 02:25:36;;;;;;;3.57;2.00;;;8.70;99.90;;;9.17;100.00;98207.78;4994937;28;20498;-76
2023/03/21 02:28:19;;;;;;;4.90;2.20;;;8.70;99.90;;;9.17;100.00;98206.00;4997977;28;20522;-77
2023/03/21 02:31:25;;;;;;;3.20;2.00;;;8.70;99.90;;;9.18;100.00;98202.41;5000015;28;21082;-77
2023/03/21 02:34:38;;;;;;;2.90;1.90;;;8.70;99.90;;;9.17;100.00;98198.19;4994627;28;20479;-77
2023/03/21 02:37:30;;;;;;;4.80;1.63;;;8.70;99.90;;;9.14;100.00;98198.53;4999253;28;20485;-77
2023/03/21 02:40:15;;;;;;;4.13;1.93;;;8.60;99.90;;;9.11;100.00;98204.09;4997125;28;20463;-77
2023/03/21 02:43:02;;;;;;;7.37;2.67;;;8.60;99.90;;;9.09;100.00;98196.44;4998219;28;21044;-78
2023/03/21 02:45:42;;;;;;;2.70;1.93;;;8.60;99.90;;;9.11;100.00;98196.28;4997877;28;21024;-77
2023/03/21 02:48:21;;;;;;;2.93;1.83;;;8.60;99.90;;;9.11;100.00;98198.88;4998038;28;20551;-77
2023/03/21 02:51:04;;;;;;;2.90;1.80;;;8.60;99.90;;;9.12;100.00;98187.47;4997549;28;20550;-77
2023/03/21 02:53:43;;;;;;;5.07;1.87;;;8.60;99.90;;;9.11;100.00;98193.66;4998461;28;20498;-77
2023/03/21 02:56:14;;;;;;;5.33;2.10;;;8.60;99.90;;;9.08;100.00;98183.59;4996884;28;20954;-78
2023/03/21 02:58:45;;;;;;;8.23;2.00;;;8.60;99.90;;;9.05;100.00;98189.16;4997249;28;21013;-77
2023/03/21 03:01:15;;;;;;;3.33;1.60;;;8.60;99.90;;;9.02;100.00;98194.72;4995856;28;20735;-77
2023/03/21 03:03:46;;;;;;;5.50;1.93;;;8.60;99.90;;;9.02;100.00;98194.72;4996366;28;20517;-77
2023/03/21 03:06:22;;;;;;;4.97;1.47;;;8.50;99.90;;;9.03;100.00;98185.88;4998589;28;20500;-76
2023/03/21 03:09:24;;;;;;;5.70;1.87;;;8.40;99.90;;;9.03;100.00;98188.50;4998903;28;20462;-77
2023/03/21 03:12:07;;;;;;;4.43;2.20;;;8.50;99.90;;;9.03;100.00;98191.09;4999955;28;20465;-77
2023/03/21 03:14:52;;;;;;;8.97;2.57;;;8.40;99.90;;;9.02;100.00;98179.06;4998543;28;20606;-77
2023/03/21 03:18:01;;;;;;;4.37;2.40;;;8.50;99.90;;;9.03;100.00;98191.09;4996475;28;20542;-77
2023/03/21 03:20:45;;;;;;;4.83;1.87;;;8.40;99.90;;;9.01;100.00;98193.09;4997055;28;20456;-77
2023/03/21 03:23:30;;;;;;;2.43;1.90;;;8.40;99.90;;;8.99;100.00;98195.03;4996704;28;20481;-77
2023/03/21 03:26:07;;;;;;;6.67;1.93;;;8.40;99.90;;;8.94;100.00;98192.16;4996786;28;20518;-77
2023/03/21 03:28:41;;;;;;;5.70;2.50;;;8.40;99.90;;;8.91;100.00;98188.09;5001227;28;20474;-77
2023/03/21 03:31:14;;;;;;;3.57;2.23;;;8.40;99.90;;;8.91;100.00;98192.50;4997235;28;21322;-77
2023/03/21 03:33:52;;;;;;;4.10;2.00;;;8.30;99.90;;;8.92;100.00;98197.53;4995285;28;20481;-77
2023/03/21 03:36:28;;;;;;;2.17;1.93;;;8.30;99.90;;;8.91;100.00;98189.88;4998359;28;20455;-77
2023/03/21 03:39:05;;;;;;;6.37;2.23;;;8.30;99.90;;;8.87;100.00;98199.03;4996479;28;20461;-77
2023/03/21 03:41:45;;;;;;;4.80;1.70;;;8.30;99.90;;;8.85;100.00;98193.19;4997186;28;20468;-77
2023/03/21 03:44:35;;;;;;;5.37;2.60;;;8.30;99.90;;;8.84;100.00;98183.75;4994869;28;20464;-77
2023/03/21 03:47:09;;;;;;;7.43;2.50;;;8.20;99.90;;;8.82;100.00;98173.47;4996586;28;20495;-77
2023/03/21 03:49:55;;;;;;;11.77;2.17;;;8.20;99.90;;;8.79;100.00;98178.22;4996643;28;21044;-77
2023/03/21 03:52:31;;;;;;;3.67;2.07;;;8.10;99.90;;;8.80;100.00;98182.47;4996728;28;21105;-78
2023/03/21 03:55:01;;;;;;;2.80;2.10;;;8.10;99.90;;;8.78;100.00;98189.66;4998405;28;20490;-78
2023/03/21 03:57:33;;;;;;;4.63;2.10;;;8.00;99.90;;;8.76;100.00;98187.19;4998179;28;20486;-77
2023/03/21 04:00:07;;;;;;;4.83;1.80;;;8.10;99.90;;;8.71;100.00;98191.31;4996664;28;20479;-78
2023/03/21 04:02:37;;;;;;;3.93;1.80;;;8.00;99.90;;;8.70;100.00;98187.09;4997419;28;20474;-77
2023/03/21 04:05:08;;;;;;;7.60;2.20;;;7.90;99.90;;;8.67;100.00;98195.25;4997624;28;20478;-78
2023/03/21 04:07:38;;;;;;;6.37;2.23;;;7.90;99.90;;;8.62;100.00;98187.13;4997796;28;20510;-77
2023/03/21 04:10:12;;;;;;;3.90;2.03;;;8.00;99.90;;;8.56;100.00;98184.22;4997861;28;21051;-75
2023/03/21 04:12:43;;;;;;;4.90;2.50;;;8.00;99.90;;;8.53;100.00;98192.38;4996865;28;21068;-77
2023/03/21 04:15:13;;;;;;;10.77;2.50;;;7.90;99.90;;;8.48;100.00;98192.06;4995571;28;20466;-77
2023/03/21 04:17:44;;;;;;;8.20;1.97;;;7.90;99.90;;;8.46;100.00;98194.06;4996353;28;20483;-77
2023/03/21 04:20:14;;;;;;;3.93;2.03;;;7.90;99.90;;;8.44;100.00;98189.97;4997581;28;20468;-77
2023/03/21 04:23:04;;;;;;;14.27;2.90;;;7.90;99.90;;;8.42;100.00;98177.13;4995995;28;20470;-75
2023/03/21 04:25:35;;;;;;;2.90;1.83;;;7.80;99.90;;;8.36;100.00;98169.19;4994274;28;21224;-78
2023/03/21 04:28:10;;;;;;;12.13;2.70;;;7.80;99.90;;;8.36;100.00;98187.41;4996256;28;20462;-77
2023/03/21 04:30:40;;;;;;;4.90;2.40;;;7.70;99.90;;;8.32;100.00;98186.13;4996568;28;20510;-77
2023/03/21 04:33:28;;;;;;;4.50;2.23;;;7.70;99.90;;;8.27;100.00;98177.97;4997120;28;20472;-78
2023/03/21 04:35:58;;;;;;;10.50;2.57;;;7.70;99.90;;;8.24;100.00;98173.91;4998866;28;20500;-77
2023/03/21 04:38:29;;;;;;;5.93;2.90;;;7.70;99.90;;;8.19;100.00;98176.19;4999695;28;20474;-77
2023/03/21 04:40:59;;;;;;;7.23;2.10;;;7.60;99.90;;;8.19;100.00;98176.19;4998500;28;20969;-78
2023/03/21 04:43:30;;;;;;;5.17;3.07;;;7.60;99.90;;;8.20;100.00;98174.41;5000862;28;21030;-77
2023/03/21 04:46:01;;;;;;;7.70;3.13;;;7.60;99.90;;;8.19;100.00;98176.19;5000329;28;20556;-80
2023/03/21 04:48:32;;;;;;;3.33;2.63;;;7.60;99.90;;;8.19;100.00;98176.19;4996137;28;20463;-77
2023/03/21 04:51:02;;;;;;;5.67;2.33;;;7.60;99.90;;;8.20;100.00;98174.41;4996989;28;20479;-77
2023/03/21 04:53:32;;;;;;;5.73;2.40;;;7.60;99.90;;;8.18;100.00;98169.38;4996278;28;20965;-77
2023/03/21 04:56:02;;;;;;;3.97;2.20;;;7.60;99.90;;;8.16;100.00;98180.97;4994172;28;20468;-77
2023/03/21 04:58:33;;;;;;;3.73;2.43;;;7.60;99.90;;;8.15;100.00;98185.34;4995748;28;20483;-77
2023/03/21 05:01:04;;;;;;;6.77;2.93;;;7.50;99.90;;;8.18;100.00;98187.63;4996719;28;20976;-77
2023/03/21 05:03:38;;;;;;;7.37;2.27;;;7.50;99.90;;;8.19;100.00;98184.00;4994613;28;20524;-77
2023/03/21 05:06:10;;;;;;;6.47;2.10;;;7.60;99.90;;;8.19;100.00;98189.22;4998294;28;21064;-77
2023/03/21 05:08:40;;;;;;;4.67;2.87;;;7.50;99.90;;;8.20;100.00;98185.63;4999878;28;20462;-77
2023/03/21 05:11:09;;;;;;;4.90;2.23;;;7.60;99.90;;;8.20;100.00;98187.44;4999948;28;20506;-76
2023/03/21 05:13:41;;;;;;;13.23;2.83;;;7.60;99.90;;;8.17;100.00;98187.78;4997916;28;21026;-77
2023/03/21 05:16:10;;;;;;;7.30;2.57;;;7.60;99.90;;;8.18;100.00;98186.81;4999637;28;20465;-78
2023/03/21 05:18:41;;;;;;;5.13;2.60;;;7.50;99.90;;;8.19;100.00;98184.00;5000022;28;20980;-78
2023/03/21 05:21:12;;;;;;;4.47;2.63;;;7.60;99.90;;;8.19;100.00;98189.22;5000497;28;20467;-78
2023/03/21 05:23:42;;;;;;;12.90;2.70;;;7.60;99.90;;;8.20;100.00;98190.84;5002158;28;21341;-78
2023/03/21 05:26:13;;;;;;;10.83;2.50;;;7.60;99.90;;;8.19;100.00;98186.63;4998724;28;20476;-78
2023/03/21 05:28:43;;;;;;;5.10;2.13;;;7.60;99.90;;;8.16;100.00;98186.94;4998955;28;21026;-78
2023/03/21 05:31:15;;;;;;;4.40;2.33;;;7.60;99.90;;;8.19;100.00;98191.81;4999380;28;20466;-78
2023/03/21 05:33:46;;;;;;;14.37;7.80;;;7.60;99.90;;;8.18;100.00;98190.22;4999050;28;21129;-78
2023/03/21 05:36:16;;;;;;;12.83;4.80;;;7.60;99.90;;;8.17;100.00;98191.19;4998253;28;21226;-78
2023/03/21 05:38:45;;;;;;;11.07;3.30;;;7.60;99.90;;;8.18;100.00;98195.44;5001745;28;20487;-79
2023/03/21 05:41:15;;;;;;;4.60;2.63;;;7.70;99.90;;;8.15;100.00;98190.56;5002107;28;20474;-78
2023/03/21 05:43:49;;;;;;;6.10;2.53;;;7.70;99.90;;;8.15;100.00;98195.78;5001315;28;20485;-78
2023/03/21 05:46:19;;;;;;;7.80;3.20;;;7.60;99.90;;;8.17;100.00;98183.38;5003048;28;20487;-78
2023/03/21 05:48:50;;;;;;;7.07;3.30;;;7.60;99.90;;;8.16;100.00;98184.34;5002525;28;20900;-78
2023/03/21 05:51:21;;;;;;;10.90;3.30;;;7.60;99.90;;;8.15;100.00;98187.97;5001696;28;20562;-78
2023/03/21 05:53:52;;;;;;;8.00;3.30;;;7.70;99.90;;;8.20;100.00;98195.25;5002199;28;20467;-78
2023/03/21 05:56:22;;;;;;;7.70;3.23;;;7.50;99.90;;;8.20;100.00;98187.44;5002333;28;20463;-78
2023/03/21 05:58:53;;;;;;;12.53;2.63;;;7.60;99.90;;;8.24;100.00;98192.16;5002329;28;20516;-78
2023/03/21 06:01:24;;;;;;;6.70;2.60;;;7.60;99.90;;;8.25;100.00;98195.56;5002348;28;20472;-78
2023/03/21 06:03:52;;;;;;;7.80;3.20;;;7.60;99.90;;;8.24;100.00;98192.16;5006833;28;20468;-78
2023/03/21 06:06:23;;;;;;;4.97;2.70;;;7.70;99.90;;;8.28;100.00;98195.22;5005022;28;20489;-78
2023/03/21 06:08:53;;;;;;;11.47;3.20;;;7.70;99.90;;;8.31;100.00;98194.91;5006126;28;20481;-78
2023/03/21 06:11:27;;;;;;;7.30;2.73;;;7.70;99.90;;;8.33;100.00;98187.75;5004156;28;20532;-78
2023/03/21 06:13:58;;;;;;;6.83;2.50;;;7.60;99.90;;;8.35;100.00;98194.41;5005448;28;20587;-78
2023/03/21 06:16:28;;;;;;;4.23;2.30;;;7.70;99.90;;;8.35;100.00;98191.81;5004865;28;20518;-78
2023/03/21 06:18:57;;;;;;;8.00;2.90;;;7.70;99.90;;;8.37;100.00;98189.03;5004604;28;20546;-78
2023/03/21 06:21:27;;;;;;;3.43;2.77;;;7.80;99.90;;;8.38;100.00;98188.88;5002218;28;20471;-78
2023/03/21 06:23:57;;;;;;;9.37;3.23;;;7.80;99.90;;;8.40;100.00;98186.09;5001495;28;20460;-78
2023/03/21 06:26:26;;;;;;;13.17;4.47;;;7.80;99.90;;;8.43;100.00;98189.19;5002354;28;20545;-78
2023/03/21 06:28:59;;;;;;;12.27;3.70;;;7.80;99.90;;;8.45;100.00;98189.00;5002503;28;20517;-78
2023/03/21 06:31:29;;;;;;;17.40;3.20;;;7.80;99.90;;;8.47;100.00;98187.84;5002888;28;20471;-78
2023/03/21 06:33:59;;;;;;;3.90;2.80;;;7.90;99.90;;;8.51;100.00;98189.13;5001424;28;20977;-78
2023/03/21 06:36:30;;;;;;;6.23;2.63;;;7.90;99.90;;;8.54;100.00;98196.59;5002483;28;20460;-78
2023/03/21 06:39:01;;;;;;;3.90;2.57;;;7.90;99.90;;;8.56;100.00;98194.66;5002414;28;20521;-78
2023/03/21 06:41:31;;;;;;;8.73;3.57;;;7.90;99.90;;;8.61;100.00;98195.94;5001155;28;20482;-78
2023/03/21 06:44:02;;;;;;;5.73;3.17;;;8.00;99.90;;;8.61;100.00;98190.72;5002037;28;20474;-78
2023/03/21 06:46:32;;;;;;;11.73;3.47;;;8.00;99.90;;;8.62;100.00;98197.53;5002337;28;20880;-78
2023/03/21 06:49:02;;;;;;;6.00;3.43;;;8.00;99.90;;;8.59;100.00;98191.69;5001064;28;20525;-78
2023/03/21 06:51:33;;;;;;;7.27;3.67;;;8.00;99.90;;;8.61;100.00;98181.09;5001454;28;20459;-78
2023/03/21 06:54:04;;;;;;;6.07;3.23;;;7.90;99.90;;;8.68;100.00;98184.63;5002348;28;20810;-78
2023/03/21 06:56:34;;;;;;;6.90;3.30;;;8.10;99.90;;;8.69;100.00;98188.06;5003053;28;20562;-78
2023/03/21 06:59:05;;;;;;;9.10;3.40;;;8.10;99.90;;;8.69;100.00;98183.66;5005052;28;20467;-78
2023/03/21 07:01:35;;;;;;;8.47;3.60;;;8.10;99.90;;;8.75;100.00;98184.75;5002415;28;20455;-78
2023/03/21 07:04:05;;;;;;;10.33;3.57;;;8.10;99.90;;;8.78;100.00;98181.84;5001887;28;20480;-78
2023/03/21 07:06:34;;;;;;;5.43;2.80;;;8.20;99.90;;;8.77;100.00;98177.59;5002242;28;20471;-78
2023/03/21 07:09:05;;;;;;;6.60;2.97;;;8.10;99.90;;;8.80;100.00;98178.06;5002232;28;20534;-78
2023/03/21 07:11:37;;;;;;;5.97;2.90;;;8.20;99.90;;;8.82;100.00;98183.09;5003489;28;20551;-78
2023/03/21 07:14:07;;;;;;;5.67;3.23;;;8.20;99.90;;;8.84;100.00;98187.16;5004306;28;20586;-78
2023/03/21 07:16:38;;;;;;;6.77;4.00;;;8.30;99.90;;;8.85;100.00;98182.78;5002463;28;20471;-78
2023/03/21 07:19:08;;;;;;;8.73;3.10;;;8.20;99.90;;;8.87;100.00;98178.19;5001369;28;20957;-78
2023/03/21 07:21:38;;;;;;;4.93;3.30;;;8.30;99.90;;;8.88;100.00;98185.84;5001063;28;20477;-78
2023/03/21 07:24:09;;;;;;;12.33;3.53;;;8.40;99.90;;;8.86;100.00;98179.97;5002973;28;20981;-77
2023/03/21 07:26:40;;;;;;;5.57;3.03;;;8.40;99.90;;;8.86;100.00;98179.16;5001843;28;20462;-78
2023/03/21 07:29:12;;;;;;;6.37;3.00;;;8.40;99.90;;;8.89;100.00;98186.63;5001204;28;20497;-78
2023/03/21 07:31:42;;;;;;;5.60;2.80;;;8.30;99.90;;;8.92;100.00;98181.09;5000814;28;20458;-78
2023/03/21 07:34:14;;;;;;;5.67;3.60;;;8.30;99.90;;;8.95;100.00;98178.94;5001072;28;20467;-78
2023/03/21 07:36:44;;;;;;;8.10;3.20;;;8.40;99.90;;;8.98;100.00;98178.59;5000175;28;20468;-78
2023/03/21 07:39:14;;;;;;;7.13;3.70;;;8.40;99.90;;;9.01;100.00;98182.66;4999446;28;20471;-78
2023/03/21 07:41:44;;;;;;;8.10;3.17;;;8.40;99.90;;;9.05;100.00;98189.16;5001287;28;20463;-78
2023/03/21 07:44:15;;;;;;;6.83;3.80;;;8.50;99.90;;;9.07;100.00;98187.16;5000295;28;20572;-78
2023/03/21 07:46:46;;;;;;;4.20;3.00;;;8.50;99.90;;;9.10;100.00;98186.81;5000560;28;20460;-78
2023/03/21 07:49:16;;;;;;;9.57;4.40;;;8.60;99.90;;;9.10;100.00;98192.03;4999105;28;20581;-78
2023/03/21 07:51:46;;;;;;;6.57;3.57;;;8.60;99.90;;;9.13;100.00;98186.47;5000124;28;20554;-78
2023/03/21 07:54:18;;;;;;;14.50;3.30;;;8.60;99.90;;;9.15;100.00;98189.72;5000300;28;20563;-78
2023/03/21 07:56:48;;;;;;;6.43;2.90;;;8.60;99.90;;;9.20;100.00;98191.81;5001207;28;20498;-78
2023/03/21 07:59:19;;;;;;;6.30;3.17;;;8.60;99.90;;;9.22;100.00;98198.47;4999747;28;20584;-78
2023/03/21 08:01:48;;;;;;;7.30;3.37;;;8.60;99.90;;;9.25;100.00;98200.75;5001133;28;20468;-78
2023/03/21 08:04:18;;;;;;;5.03;3.30;;;8.60;99.90;;;9.28;100.00;98199.56;4998672;28;20471;-78
2023/03/21 08:06:47;;;;;;;4.67;3.00;;;8.60;99.90;;;9.32;100.00;98201.66;5001928;28;20509;-78
2023/03/21 08:09:18;;;;;;;10.37;3.60;;;8.70;99.90;;;9.34;100.00;98204.91;5001558;28;20506;-78
2023/03/21 08:11:48;;;;;;;9.47;3.10;;;8.80;99.90;;;9.37;100.00;98199.31;4998496;28;20475;-78
2023/03/21 08:14:20;;;;;;;10.70;3.40;;;8.80;99.90;;;9.42;100.00;98201.41;5001931;28;20471;-78
2023/03/21 08:16:49;;;;;;;7.90;3.53;;;8.90;99.90;;;9.45;100.00;98201.06;5003860;28;20470;-78
2023/03/21 08:19:20;;;;;;;5.83;3.63;;;8.90;99.90;;;9.47;100.00;98207.75;5001748;28;20472;-78
2023/03/21 08:21:51;;;;;;;6.00;2.73;;;8.90;99.90;;;9.50;100.00;98210.00;4999340;28;20467;-78
2023/03/21 08:24:22;;;;;;;6.90;4.00;;;9.00;99.90;;;9.49;100.00;98203.16;4998496;28;20495;-78
2023/03/21 08:26:53;;;;;;;10.10;2.90;;;9.00;99.90;;;9.54;100.00;98200.03;4999461;28;20497;-78
2023/03/21 08:29:24;;;;;;;4.77;3.03;;;9.00;99.90;;;9.58;100.00;98196.84;4998835;28;20524;-77
2023/03/21 08:31:56;;;;;;;8.97;3.00;;;9.10;99.90;;;9.57;100.00;98199.66;4999157;28;20462;-78
2023/03/21 08:34:27;;;;;;;8.20;3.17;;;9.10;99.90;;;9.55;100.00;98199.81;4999224;28;20474;-78
2023/03/21 08:36:58;;;;;;;5.03;3.10;;;9.00;99.90;;;9.58;100.00;98204.69;5001349;28;20514;-78
2023/03/21 08:39:27;;;;;;;7.10;3.23;;;9.10;99.90;;;9.60;100.00;98202.72;4999761;28;21426;-78
2023/03/21 08:41:57;;;;;;;7.13;3.73;;;9.10;99.90;;;9.64;100.00;98204.97;5003519;28;20562;-78
2023/03/21 08:44:28;;;;;;;7.37;3.70;;;9.10;99.90;;;9.65;100.00;98193.56;5001796;28;20474;-78
2023/03/21 08:46:58;;;;;;;5.13;3.47;;;9.10;99.90;;;9.71;100.00;98200.69;5003667;28;20474;-78
2023/03/21 08:49:29;;;;;;;8.17;3.13;;;9.10;99.90;;;9.72;100.00;98197.09;5001349;28;21097;-78
2023/03/21 08:51:59;;;;;;;5.80;2.80;;;9.10;99.90;;;9.76;100.00;98191.31;5003189;28;20470;-78
2023/03/21 08:54:29;;;;;;;8.13;3.80;;;9.20;99.90;;;9.79;100.00;98193.56;5003274;28;20464;-78
2023/03/21 08:56:59;;;;;;;6.10;3.50;;;9.30;99.90;;;9.80;100.00;98184.75;5005907;28;20493;-78
2023/03/21 08:59:29;;;;;;;5.10;2.90;;;9.30;99.90;;;9.82;100.00;98182.75;5006817;28;20608;-78
2023/03/21 09:01:59;;;;;;;8.87;3.70;;;9.30;99.90;;;9.84;100.00;98179.97;5001663;28;20469;-78
2023/03/21 09:04:30;;;;;;;7.10;3.80;;;9.30;99.90;;;9.86;100.00;98184.03;5002206;28;20466;-78
2023/03/21 09:07:03;;;;;;;6.70;3.70;;;9.30;99.90;;;9.86;100.00;98183.22;5002446;28;20470;-78
2023/03/21 09:09:32;;;;;;;6.00;3.87;;;9.30;99.90;;;9.90;100.00;98184.47;5004326;28;20505;-78
2023/03/21 09:12:02;;;;;;;8.00;3.90;;;9.30;99.90;;;9.89;100.00;98182.88;5002051;28;20526;-78
2023/03/21 09:14:34;;;;;;;11.73;4.23;;;9.40;99.90;;;9.91;100.00;98191.34;5002063;28;20472;-78
2023/03/21 09:17:04;;;;;;;12.03;4.07;;;9.30;99.90;;;9.92;100.00;98183.34;5003317;28;20578;-79
2023/03/21 09:19:34;;;;;;;7.80;4.07;;;9.30;99.90;;;9.95;100.00;98193.41;5002347;28;20549;-78
2023/03/21 09:22:04;;;;;;;7.70;3.60;;;9.40;99.90;;;9.97;100.00;98191.44;5003534;28;20880;-78
2023/03/21 09:24:34;;;;;;;5.13;3.50;;;9.40;99.90;;;9.99;100.00;98186.84;5003073;28;20470;-78
2023/03/21 09:27:04;;;;;;;9.00;3.77;;;9.50;99.90;;;10.01;100.00;98190.09;5003999;28;20464;-78
2023/03/21 09:29:35;;;;;;;13.87;4.60;;;9.50;99.90;;;10.05;100.00;98193.16;5001411;28;20499;-78
2023/03/21 09:32:05;;;;;;;7.30;3.67;;;9.50;99.90;;;10.05;100.00;98186.13;5001720;28;20471;-77
2023/03/21 09:34:35;;;;;;;7.37;4.33;;;9.60;99.90;;;10.07;100.00;98188.53;5000324;28;20573;-78
2023/03/21 09:37:08;;;;;;;8.97;3.93;;;9.60;99.90;;;10.09;100.00;98187.38;5001379;28;20506;-78
2023/03/21 09:39:41;;;;;;;8.50;3.60;;;9.60;99.90;;;10.13;100.00;98180.00;5001021;28;20557;-78
2023/03/21 09:42:24;;;;;;;8.50;4.17;;;9.60;99.90;;;10.16;100.00;98176.25;4999990;28;20463;-78
2023/03/21 09:45:14;;;;;;;9.57;4.10;;;9.70;99.90;;;10.21;100.00;98177.31;5001903;28;20546;-78
2023/03/21 09:47:51;;;;;;;11.23;3.60;;;9.70;99.90;;;10.25;100.00;98182.97;4999392;28;20837;-78
2023/03/21 09:50:30;;;;;;;14.40;4.50;;;9.70;99.90;;;10.27;100.00;98179.22;5000740;28;20484;-78
2023/03/21 09:53:06;;;;;;;8.53;3.97;;;9.80;99.90;;;10.33;100.00;98181.09;5000140;28;20462;-78
2023/03/21 09:55:40;;;;;;;8.73;4.10;;;9.70;99.90;;;10.39;100.00;98185.59;4999263;28;20467;-78
2023/03/21 09:58:30;;;;;;;5.27;3.43;;;9.80;99.90;;;10.45;100.00;98177.00;5000153;28;20962;-78
2023/03/21 10:01:25;;;;;;;6.97;4.20;;;9.90;99.90;;;10.50;100.00;98172.06;5001203;28;20474;-78
2023/03/21 10:03:59;;;;;;;5.70;3.37;;;9.90;99.90;;;10.55;100.00;98169.69;5000771;28;20845;-78
2023/03/21 10:06:31;;;;;;;8.47;3.90;;;10.00;99.90;;;10.56;100.00;98168.69;5001787;28;20463;-78
2023/03/21 10:09:08;;;;;;;9.70;4.43;;;10.10;99.90;;;10.54;100.00;98167.28;4999803;28;20990;-78
2023/03/21 10:11:47;;;;;;;7.53;3.63;;;10.00;99.90;;;10.56;100.00;98171.31;5001128;28;20885;-78
2023/03/21 10:14:21;;;;;;;5.37;3.70;;;10.00;99.90;;;10.57;100.00;98162.50;5004378;28;20469;-78
2023/03/21 10:16:57;;;;;;;7.50;3.80;;;10.00;99.90;;;10.65;100.00;98164.19;5002088;28;20957;-78
2023/03/21 10:19:29;;;;;;;8.77;3.67;;;10.10;99.90;;;10.68;100.00;98157.78;4999756;28;20530;-78
2023/03/21 10:21:59;;;;;;;7.50;3.80;;;10.20;99.90;;;10.66;100.00;98159.75;5001421;28;20466;-78
2023/03/21 10:24:35;;;;;;;5.70;3.20;;;10.10;99.90;;;10.64;100.00;98159.13;5000718;28;20459;-77
2023/03/21 10:27:05;;;;;;;7.00;3.50;;;10.00;99.90;;;10.66;100.00;98159.75;4999761;28;20482;-78
2023/03/21 10:29:42;;;;;;;5.80;3.47;;;10.10;99.90;;;10.72;100.00;98164.25;4999409;28;20522;-78
2023/03/21 10:32:18;;;;;;;6.67;3.63;;;10.10;99.90;;;10.70;100.00;98156.59;4939865;28;1719852;-78
2023/03/21 10:34:54;;;;;;;9.17;3.83;;;10.10;99.90;;;10.73;100.00;98166.66;5002355;28;20682;-78
2023/03/21 10:37:25;;;;;;;10.47;4.00;;;10.10;99.90;;;10.79;100.00;98155.50;5002094;28;20458;-78
2023/03/21 10:39:56;;;;;;;6.80;3.30;;;10.20;99.90;;;10.87;100.00;98159.78;5000570;28;20455;-78
2023/03/21 10:42:31;;;;;;;6.83;3.57;;;10.30;99.90;;;10.88;100.00;98164.00;5001900;28;20459;-78
2023/03/21 10:45:01;;;;;;;8.60;4.50;;;10.20;99.90;;;10.94;100.00;98153.63;5002695;28;20466;-78
2023/03/21 10:47:34;;;;;;;5.90;3.63;;;10.30;99.90;;;10.96;100.00;98150.81;5000872;28;20460;-78
2023/03/21 10:50:07;;;;;;;7.80;4.03;;;10.40;99.90;;;11.01;100.00;98149.25;5001123;28;20586;-78
2023/03/21 10:52:46;;;;;;;10.47;3.60;;;10.40;99.90;;;11.07;100.00;98145.88;5003530;28;20463;-78